OEMA

Prince Mohammad Bin Abdulaziz Airport

Medina, Saudi Arabia
TAF OEMA 170500Z 1706/1812 14008G18KT 6000 FEW045 TEMPO 1712/1718 FEW035CB SCT045 BECMG 1714/1716 VRB03KT
Issued Valid From Valid To
Oct-17 @ 05:00 UTC
(an hour ago)
Oct-17 @ 06:00 UTC
(11 minutes ago)
Oct-18 @ 12:00 UTC
(-1 days ago)
Oct-17 @ 06:00 to Oct-17 @ 14:00
TAF OEMA 170500Z 1706/1812 14008G18KT 6000 FEW045
Wind Visibility Clouds
140° at 8 knots
 Gusting to 18 knots
6,003 meters
  • Few at 4,500' AGL
Temporary Oct-17 @ 12:00 to Oct-17 @ 18:00
TEMPO 1712/1718 FEW035CB SCT045
Clouds
  • Few at 3,500' AGL
  • Scattered at 4,500' AGL
Becoming Oct-17 @ 14:00 to Oct-18 @ 12:00
BECMG 1714/1716 VRB03KT
Wind Visibility Clouds
Variable at 3 knots 6,003 meters
  • Few at 4,500' AGL
TAF OEMA 170500Z 1706/1812 14008G18KT 6000 FEW045 TEMPO 1712/1718 FEW035CB SCT045 BECMG 1714/1716 VRB03KT
Issued Oct-17 @ 05:00 UTC
(an hour ago)
Valid From Oct-17 @ 06:00 UTC
(11 minutes ago)
Valid To Oct-18 @ 12:00 UTC
(-1 days ago)
Oct-17 @ 06:00 - Oct-17 @ 14:00
Wind Visibility
140° at 8 knots
 Gusting to 18 knots
6,003 meters
Clouds
  • Few at 4,500' AGL
Temporary Oct-17 @ 12:00 - Oct-17 @ 18:00
Clouds
  • Few at 3,500' AGL
  • Scattered at 4,500' AGL
Becoming Oct-17 @ 14:00 - Oct-18 @ 12:00
Wind Visibility
Variable at 3 knots 6,003 meters
Clouds
  • Few at 4,500' AGL